createdAt,value
2018-12-24T00:01:32.350Z,12.20
2018-12-24T00:04:01.958Z,12.30
2018-12-24T00:06:31.635Z,12.30
2018-12-24T00:09:01.221Z,12.30
2018-12-24T00:11:31.052Z,12.30
2018-12-24T00:14:00.662Z,12.30
2018-12-24T00:16:30.263Z,12.30
2018-12-24T00:18:59.821Z,12.30
2018-12-24T00:21:29.618Z,12.30
2018-12-24T00:23:59.225Z,12.30
2018-12-24T00:26:28.885Z,12.30
2018-12-24T00:28:58.454Z,12.30
2018-12-24T00:31:28.167Z,12.30
2018-12-24T00:33:57.809Z,12.30
2018-12-24T00:36:27.416Z,12.40
2018-12-24T00:38:57.176Z,12.30
2018-12-24T00:41:27.070Z,12.40
2018-12-24T00:43:56.670Z,12.30
2018-12-24T00:46:26.344Z,12.30
2018-12-24T00:48:55.918Z,12.20
2018-12-24T00:51:25.493Z,12.10
2018-12-24T00:53:55.090Z,12.10
2018-12-24T00:56:24.666Z,12.10
2018-12-24T00:58:54.278Z,12.10
2018-12-24T01:01:23.918Z,12.00
2018-12-24T01:03:53.635Z,12.00
2018-12-24T01:06:23.441Z,12.00
2018-12-24T01:08:53.036Z,12.00
2018-12-24T01:11:22.588Z,12.00
2018-12-24T01:13:52.235Z,12.00
2018-12-24T01:16:21.826Z,12.00
2018-12-24T01:18:51.372Z,11.90
2018-12-24T01:21:20.982Z,12.00
2018-12-24T01:23:50.541Z,12.10
2018-12-24T01:26:20.130Z,12.10
2018-12-24T01:28:49.704Z,12.00
2018-12-24T01:31:19.564Z,12.00
2018-12-24T01:33:49.098Z,11.90
2018-12-24T01:36:18.682Z,11.50
2018-12-24T01:38:48.254Z,11.30
2018-12-24T01:41:17.847Z,11.20
2018-12-24T01:43:47.516Z,11.10
2018-12-24T01:46:17.125Z,10.80
2018-12-24T01:48:46.827Z,10.70
2018-12-24T01:51:16.394Z,10.60
2018-12-24T01:53:45.991Z,10.50
2018-12-24T01:56:15.555Z,10.40
2018-12-24T01:58:45.147Z,10.30
2018-12-24T02:01:14.695Z,10.30
2018-12-24T02:03:44.467Z,10.10
2018-12-24T02:06:14.128Z,10.00
2018-12-24T02:08:43.731Z,10.00
2018-12-24T02:11:13.316Z,9.90
2018-12-24T02:13:43.169Z,9.80
2018-12-24T02:16:12.766Z,9.80
2018-12-24T02:18:42.339Z,9.70
2018-12-24T02:21:11.937Z,9.60
2018-12-24T02:23:41.606Z,9.60
2018-12-24T02:26:11.226Z,9.50
2018-12-24T02:28:40.825Z,9.30
2018-12-24T02:31:10.441Z,9.20
2018-12-24T02:33:40.082Z,9.20
2018-12-24T02:36:09.776Z,9.10
2018-12-24T02:38:39.349Z,9.10
2018-12-24T02:41:09.166Z,9.00
2018-12-24T02:43:38.730Z,8.90
2018-12-24T02:46:08.295Z,8.90
2018-12-24T02:48:38.026Z,8.80
2018-12-24T02:51:07.557Z,8.80
2018-12-24T02:53:37.159Z,8.80
2018-12-24T02:56:07.117Z,8.80
2018-12-24T02:58:36.788Z,8.80
2018-12-24T03:01:06.645Z,8.80
2018-12-24T03:03:36.567Z,8.80
2018-12-24T03:06:06.133Z,8.80
2018-12-24T03:08:35.725Z,8.80
2018-12-24T03:11:05.401Z,8.80
2018-12-24T03:13:35.318Z,8.80
2018-12-24T03:16:04.863Z,8.60
2018-12-24T03:18:34.507Z,8.60
2018-12-24T03:21:04.219Z,8.60
2018-12-24T03:23:34.034Z,8.60
2018-12-24T03:26:03.719Z,8.40
2018-12-24T03:28:33.160Z,8.40
2018-12-24T03:31:02.745Z,8.50
2018-12-24T03:33:32.436Z,8.40
2018-12-24T03:36:02.410Z,8.30
2018-12-24T03:38:31.952Z,8.30
2018-12-24T03:41:01.578Z,8.30
2018-12-24T03:43:31.191Z,8.30
2018-12-24T03:46:00.775Z,8.30
2018-12-24T03:48:30.459Z,8.20
2018-12-24T03:51:00.053Z,8.20
2018-12-24T03:53:29.718Z,8.10
2018-12-24T03:55:59.282Z,8.10
2018-12-24T03:58:28.859Z,8.00
2018-12-24T04:00:58.435Z,8.00
2018-12-24T04:03:28.022Z,7.90
2018-12-24T04:05:57.577Z,7.80
2018-12-24T04:08:27.171Z,7.70
2018-12-24T04:10:56.740Z,7.70
2018-12-24T04:13:26.335Z,7.60
2018-12-24T04:15:55.906Z,7.50
2018-12-24T04:18:25.470Z,7.50
2018-12-24T04:20:55.035Z,7.50
2018-12-24T04:23:24.600Z,7.50
2018-12-24T04:25:54.167Z,7.50
2018-12-24T04:28:23.730Z,7.50
2018-12-24T04:30:53.284Z,7.50
2018-12-24T04:33:23.061Z,7.50
2018-12-24T04:35:52.965Z,7.50
2018-12-24T04:38:22.533Z,7.50
2018-12-24T04:40:52.193Z,7.50
2018-12-24T04:43:21.772Z,7.40
2018-12-24T04:45:51.353Z,7.40
2018-12-24T04:48:20.977Z,7.40
2018-12-24T04:50:50.558Z,7.40
2018-12-24T04:53:20.133Z,7.30
2018-12-24T04:55:49.735Z,7.30
2018-12-24T04:58:19.274Z,7.30
2018-12-24T05:00:48.848Z,7.30
2018-12-24T05:03:18.422Z,7.30
2018-12-24T05:05:47.968Z,7.30
2018-12-24T05:08:17.550Z,7.30
2018-12-24T05:10:47.140Z,7.20
2018-12-24T05:13:16.670Z,7.10
2018-12-24T05:15:46.212Z,7.10
2018-12-24T05:18:16.008Z,7.10
2018-12-24T05:20:45.543Z,7.10
2018-12-24T05:23:15.096Z,7.10
2018-12-24T05:25:44.683Z,7.00
2018-12-24T05:28:14.260Z,6.90
2018-12-24T05:30:43.884Z,7.00
2018-12-24T05:33:13.486Z,7.00
2018-12-24T05:35:43.112Z,6.90
2018-12-24T05:38:13.064Z,6.90
2018-12-24T05:40:42.672Z,6.90
2018-12-24T05:43:12.230Z,6.90
2018-12-24T05:45:41.814Z,6.90
2018-12-24T05:48:11.594Z,6.90
2018-12-24T05:50:41.191Z,6.90
2018-12-24T05:53:10.760Z,6.80
2018-12-24T05:55:40.380Z,6.80
2018-12-24T05:58:09.942Z,6.80
2018-12-24T06:00:39.621Z,6.80
2018-12-24T06:03:09.182Z,6.70
2018-12-24T06:05:38.771Z,6.70
2018-12-24T06:08:08.456Z,6.60
2018-12-24T06:10:37.998Z,6.60
2018-12-24T06:13:07.570Z,6.60
2018-12-24T06:15:37.116Z,6.60
2018-12-24T06:18:06.908Z,6.50
2018-12-24T06:20:37.776Z,6.50
2018-12-24T06:23:07.896Z,6.40
2018-12-24T06:25:37.444Z,6.40
2018-12-24T06:28:07.038Z,6.40
2018-12-24T06:30:36.585Z,6.40
2018-12-24T06:33:06.183Z,6.50
2018-12-24T06:35:35.802Z,6.40
2018-12-24T06:38:05.345Z,6.30
2018-12-24T06:40:34.929Z,6.30
2018-12-24T06:43:04.460Z,6.30
2018-12-24T06:45:34.031Z,6.20
2018-12-24T06:48:03.776Z,6.20
2018-12-24T06:50:33.407Z,6.30
2018-12-24T06:53:02.978Z,6.30
2018-12-24T06:55:32.527Z,6.30
2018-12-24T06:58:02.078Z,6.20
2018-12-24T07:00:31.647Z,6.20
2018-12-24T07:03:01.178Z,6.20
2018-12-24T07:05:30.849Z,6.20
2018-12-24T07:08:00.417Z,6.20
2018-12-24T07:10:29.992Z,6.20
2018-12-24T07:12:59.551Z,6.10
2018-12-24T07:15:29.104Z,6.20
2018-12-24T07:17:58.657Z,6.10
2018-12-24T07:20:28.260Z,6.10
2018-12-24T07:22:57.835Z,6.10
2018-12-24T07:25:27.432Z,6.00
2018-12-24T07:27:56.983Z,6.00
2018-12-24T07:30:26.532Z,6.00
2018-12-24T07:32:56.100Z,5.90
2018-12-24T07:35:25.670Z,5.90
2018-12-24T07:37:55.842Z,5.80
2018-12-24T07:40:25.532Z,5.80
2018-12-24T07:42:55.084Z,5.90
2018-12-24T07:45:24.642Z,5.90
2018-12-24T07:47:54.265Z,5.90
2018-12-24T07:50:23.865Z,5.80
2018-12-24T07:52:53.408Z,5.80
2018-12-24T07:55:22.984Z,5.80
2018-12-24T07:57:52.595Z,5.80
2018-12-24T08:00:22.329Z,5.80
2018-12-24T08:02:51.871Z,5.90
2018-12-24T08:05:21.522Z,5.90
2018-12-24T08:07:51.079Z,6.00
2018-12-24T08:10:20.724Z,6.00
2018-12-24T08:12:50.244Z,6.00
2018-12-24T08:15:19.772Z,6.00
2018-12-24T08:17:49.392Z,6.00
2018-12-24T08:20:18.960Z,6.00
2018-12-24T08:22:48.606Z,6.00
2018-12-24T08:25:18.156Z,6.00
2018-12-24T08:27:47.711Z,6.00
2018-12-24T08:30:17.266Z,5.90
2018-12-24T08:32:46.863Z,5.90
2018-12-24T08:35:16.411Z,6.00
2018-12-24T08:37:46.093Z,6.00
2018-12-24T08:40:15.636Z,6.00
2018-12-24T08:42:45.231Z,6.00
2018-12-24T08:45:14.772Z,6.00
2018-12-24T08:47:44.421Z,6.00
2018-12-24T08:50:13.994Z,6.00
2018-12-24T08:52:43.631Z,6.00
2018-12-24T08:55:13.200Z,5.90
2018-12-24T08:57:42.749Z,6.00
2018-12-24T09:00:12.359Z,6.00
2018-12-24T09:02:42.226Z,6.00
2018-12-24T09:05:11.778Z,6.00
2018-12-24T09:07:41.354Z,6.00
2018-12-24T09:10:10.945Z,5.90
2018-12-24T09:12:40.511Z,5.90
2018-12-24T09:15:10.604Z,5.90
2018-12-24T09:17:40.222Z,5.80
2018-12-24T09:20:10.227Z,5.90
2018-12-24T09:22:39.796Z,6.00
2018-12-24T09:25:09.404Z,6.00
2018-12-24T09:27:39.021Z,6.00
2018-12-24T09:30:11.418Z,6.10
2018-12-24T09:32:40.999Z,6.10
2018-12-24T09:35:10.624Z,6.10
2018-12-24T09:37:40.232Z,6.10
2018-12-24T09:40:12.407Z,6.10
2018-12-24T09:42:42.006Z,6.10
2018-12-24T09:45:11.581Z,6.10
2018-12-24T09:47:41.208Z,6.10
2018-12-24T09:50:12.188Z,6.10
2018-12-24T09:52:42.079Z,6.10
2018-12-24T09:55:11.756Z,6.20
2018-12-24T09:57:41.324Z,6.30
2018-12-24T10:00:13.619Z,6.20
2018-12-24T10:02:47.192Z,6.20
2018-12-24T10:05:20.548Z,6.40
2018-12-24T10:07:52.343Z,6.50
2018-12-24T10:10:21.950Z,6.50
2018-12-24T10:12:51.551Z,6.60
2018-12-24T10:15:21.189Z,6.60
2018-12-24T10:17:50.773Z,6.50
2018-12-24T10:20:20.376Z,6.60
2018-12-24T10:22:49.934Z,6.70
2018-12-24T10:25:19.546Z,6.60
2018-12-24T10:27:49.209Z,6.70
2018-12-24T10:30:18.877Z,6.80
2018-12-24T10:32:48.571Z,6.90
2018-12-24T10:35:18.287Z,7.10
2018-12-24T10:37:48.024Z,7.20
2018-12-24T10:40:18.934Z,7.40
2018-12-24T10:42:48.619Z,7.50
2018-12-24T10:45:18.197Z,7.70
2018-12-24T10:47:47.910Z,7.90
2018-12-24T10:50:17.547Z,8.00
2018-12-24T10:52:47.326Z,8.10
2018-12-24T10:55:16.967Z,8.20
2018-12-24T10:57:47.223Z,8.10
2018-12-24T11:00:16.771Z,8.00
2018-12-24T11:02:46.449Z,8.00
2018-12-24T11:05:16.051Z,7.90
2018-12-24T11:07:45.627Z,7.90
2018-12-24T11:10:15.282Z,7.80
2018-12-24T11:12:45.151Z,7.80
2018-12-24T11:15:15.075Z,7.70
2018-12-24T11:17:45.001Z,7.50
2018-12-24T11:20:15.229Z,7.50
2018-12-24T11:23:27.140Z,7.50
2018-12-24T11:25:56.439Z,7.50
2018-12-24T11:28:25.589Z,7.40
2018-12-24T11:30:54.829Z,7.40
2018-12-24T11:33:23.981Z,7.40
2018-12-24T11:35:53.136Z,7.30
2018-12-24T11:38:22.287Z,7.30
2018-12-24T11:40:51.607Z,7.30
2018-12-24T11:43:20.847Z,7.30
2018-12-24T11:45:49.987Z,7.20
2018-12-24T11:48:19.224Z,7.20
2018-12-24T11:50:48.406Z,7.20
2018-12-24T11:53:17.664Z,7.30
2018-12-24T11:55:46.870Z,7.40
2018-12-24T11:58:16.822Z,7.50
2018-12-24T12:00:46.118Z,7.60
2018-12-24T12:03:15.393Z,7.60
2018-12-24T12:05:44.623Z,7.60
2018-12-24T12:08:13.778Z,7.40
2018-12-24T12:10:42.914Z,7.40
2018-12-24T12:13:12.175Z,7.40
2018-12-24T12:15:42.760Z,7.50
2018-12-24T12:18:12.415Z,7.50
2018-12-24T12:20:41.609Z,7.50
2018-12-24T12:23:10.777Z,7.50
2018-12-24T12:25:39.925Z,7.40
2018-12-24T12:28:09.175Z,7.30
2018-12-24T12:30:38.327Z,7.40
2018-12-24T12:33:07.403Z,7.40
2018-12-24T12:35:36.613Z,7.30
2018-12-24T12:38:05.727Z,7.30
2018-12-24T12:40:34.922Z,7.30
2018-12-24T12:43:04.026Z,7.30
2018-12-24T12:45:33.168Z,7.30
2018-12-24T12:48:02.436Z,7.40
2018-12-24T12:50:31.558Z,7.40
2018-12-24T12:53:00.714Z,7.40
2018-12-24T12:55:29.908Z,7.50
2018-12-24T12:57:59.054Z,7.40
2018-12-24T13:00:28.208Z,7.40
2018-12-24T13:02:57.422Z,7.40
2018-12-24T13:05:26.637Z,7.40
2018-12-24T13:07:55.797Z,7.50
2018-12-24T13:10:24.948Z,7.60
2018-12-24T13:12:54.193Z,7.60
2018-12-24T13:15:23.312Z,7.70
2018-12-24T13:17:52.469Z,7.70
2018-12-24T13:20:25.158Z,7.60
2018-12-24T13:22:52.648Z,7.60
2018-12-24T13:25:21.804Z,7.70
2018-12-24T13:27:50.955Z,7.70
2018-12-24T13:30:20.184Z,7.70
2018-12-24T13:32:49.349Z,7.70
2018-12-24T13:35:18.504Z,7.70
2018-12-24T13:37:47.656Z,7.70
2018-12-24T13:40:16.825Z,7.70
2018-12-24T13:42:45.964Z,7.70
2018-12-24T13:45:15.213Z,7.70
2018-12-24T13:47:44.416Z,7.70
2018-12-24T13:50:13.569Z,7.70
2018-12-24T13:52:42.814Z,7.70
2018-12-24T13:55:12.147Z,7.60
2018-12-24T13:57:41.274Z,7.60
2018-12-24T14:00:10.413Z,7.60
2018-12-24T14:02:39.572Z,7.60
2018-12-24T14:05:08.759Z,7.60
2018-12-24T14:07:37.895Z,7.60
2018-12-24T14:10:07.485Z,7.50
2018-12-24T14:12:36.767Z,7.50
2018-12-24T14:15:06.744Z,7.40
2018-12-24T14:17:35.868Z,7.40
2018-12-24T14:20:05.670Z,7.30
2018-12-24T14:22:34.894Z,7.30
2018-12-24T14:25:04.105Z,7.20
2018-12-24T14:27:33.263Z,7.10
2018-12-24T14:30:02.434Z,7.10
2018-12-24T14:32:31.596Z,7.00
2018-12-24T14:35:00.873Z,7.00
2018-12-24T14:37:30.032Z,7.00
2018-12-24T14:39:59.219Z,7.00
2018-12-24T14:42:28.370Z,6.90
2018-12-24T14:44:57.621Z,6.90
2018-12-24T14:47:26.852Z,6.90
2018-12-24T14:49:56.042Z,6.90
2018-12-24T14:52:25.192Z,6.90
2018-12-24T14:54:54.324Z,6.90
2018-12-24T14:57:23.534Z,6.90
2018-12-24T14:59:52.679Z,6.80
2018-12-24T15:02:21.833Z,6.80
2018-12-24T15:04:50.974Z,6.80
2018-12-24T15:07:20.174Z,6.80
2018-12-24T15:09:49.311Z,6.80
2018-12-24T15:12:18.558Z,6.70
2018-12-24T15:14:47.719Z,6.60
2018-12-24T15:17:16.935Z,6.50
2018-12-24T15:19:46.242Z,6.50
2018-12-24T15:22:15.384Z,6.30
2018-12-24T15:24:44.717Z,6.20
2018-12-24T15:27:13.981Z,6.10
2018-12-24T15:29:43.221Z,6.10
2018-12-24T15:32:12.389Z,6.00
2018-12-24T15:34:41.625Z,5.90
2018-12-24T15:37:10.819Z,5.90
2018-12-24T15:39:40.021Z,5.80
2018-12-24T15:42:09.217Z,5.70
2018-12-24T15:44:38.453Z,5.60
2018-12-24T15:47:07.610Z,5.60
2018-12-24T15:49:36.807Z,5.50
2018-12-24T15:52:06.063Z,5.60
2018-12-24T15:54:35.226Z,5.50
2018-12-24T15:57:04.381Z,5.50
2018-12-24T15:59:33.549Z,5.50
2018-12-24T16:02:02.681Z,5.40
2018-12-24T16:04:31.872Z,5.40
2018-12-24T16:07:01.097Z,5.30
2018-12-24T16:09:30.268Z,5.30
2018-12-24T16:11:59.436Z,5.30
2018-12-24T16:14:28.584Z,5.30
2018-12-24T16:16:57.721Z,5.30
2018-12-24T16:19:26.947Z,5.20
2018-12-24T16:21:56.097Z,5.20
2018-12-24T16:24:25.356Z,5.20
2018-12-24T16:26:54.511Z,5.30
2018-12-24T16:29:23.699Z,5.30
2018-12-24T16:31:52.846Z,5.30
2018-12-24T16:34:22.577Z,5.30
2018-12-24T16:36:51.978Z,5.30
2018-12-24T16:39:21.541Z,5.30
2018-12-24T16:41:50.698Z,5.20
2018-12-24T16:44:22.607Z,5.20
2018-12-24T16:46:59.211Z,5.10
2018-12-24T16:49:22.688Z,5.00
2018-12-24T16:51:51.821Z,5.00
2018-12-24T16:54:20.968Z,4.90
2018-12-24T16:56:50.223Z,4.80
2018-12-24T16:59:19.396Z,4.80
2018-12-24T17:01:48.567Z,4.70
2018-12-24T17:04:17.722Z,4.70
2018-12-24T17:06:46.907Z,4.60
2018-12-24T17:09:16.083Z,4.50
2018-12-24T17:11:45.265Z,4.50
2018-12-24T17:14:14.410Z,4.40
2018-12-24T17:16:43.661Z,4.40
2018-12-24T17:19:12.823Z,4.30
2018-12-24T17:21:42.008Z,4.30
2018-12-24T17:24:11.242Z,4.30
2018-12-24T17:26:40.386Z,4.30
2018-12-24T17:29:09.600Z,4.20
2018-12-24T17:31:38.834Z,4.20
2018-12-24T17:34:08.301Z,4.10
2018-12-24T17:36:37.449Z,4.00
2018-12-24T17:39:09.260Z,4.00
2018-12-24T17:41:38.409Z,3.90
2018-12-24T17:44:07.583Z,3.80
2018-12-24T17:46:36.693Z,3.80
2018-12-24T17:49:05.950Z,3.70
2018-12-24T17:51:35.101Z,3.70
2018-12-24T17:54:04.248Z,3.70
2018-12-24T17:56:33.546Z,3.60
2018-12-24T17:59:02.700Z,3.60
2018-12-24T18:01:31.904Z,3.50
2018-12-24T18:04:01.082Z,3.50
2018-12-24T18:06:30.270Z,3.40
2018-12-24T18:08:59.410Z,3.30
2018-12-24T18:11:28.599Z,3.30
2018-12-24T18:13:57.762Z,3.20
2018-12-24T18:16:26.904Z,3.20
2018-12-24T18:18:56.027Z,3.20
2018-12-24T18:21:25.260Z,3.10
2018-12-24T18:23:54.439Z,3.10
2018-12-24T18:26:23.604Z,3.10
2018-12-24T18:28:52.846Z,3.10
2018-12-24T18:31:21.988Z,3.10
2018-12-24T18:33:51.226Z,3.00
2018-12-24T18:36:20.448Z,3.00
2018-12-24T18:38:49.640Z,3.00
2018-12-24T18:41:18.805Z,3.00
2018-12-24T18:43:47.976Z,2.90
2018-12-24T18:46:17.123Z,2.90
2018-12-24T18:48:46.380Z,2.90
2018-12-24T18:51:15.559Z,2.90
2018-12-24T18:53:44.745Z,2.80
2018-12-24T18:56:13.883Z,2.80
2018-12-24T18:58:43.077Z,2.80
2018-12-24T19:01:12.277Z,2.80
2018-12-24T19:03:41.413Z,2.80
2018-12-24T19:06:10.590Z,2.80
2018-12-24T19:08:39.792Z,2.80
2018-12-24T19:11:08.971Z,2.70
2018-12-24T19:13:38.117Z,2.30
2018-12-24T19:16:07.280Z,2.00
2018-12-24T19:18:36.431Z,2.00
2018-12-24T19:21:05.608Z,1.90
2018-12-24T19:23:34.753Z,2.00
2018-12-24T19:26:04.007Z,2.00
2018-12-24T19:28:33.345Z,2.00
2018-12-24T19:31:02.658Z,2.00
2018-12-24T19:33:31.933Z,1.90
2018-12-24T19:36:01.074Z,1.90
2018-12-24T19:38:30.346Z,2.00
2018-12-24T19:40:59.500Z,2.00
2018-12-24T19:43:28.666Z,2.00
2018-12-24T19:45:57.852Z,2.00
2018-12-24T19:48:27.079Z,2.00
2018-12-24T19:50:56.223Z,2.00
2018-12-24T19:53:25.382Z,2.00
2018-12-24T19:55:55.040Z,2.00
2018-12-24T19:58:24.460Z,2.00
2018-12-24T20:00:53.610Z,2.00
2018-12-24T20:03:22.751Z,2.00
2018-12-24T20:05:51.924Z,2.00
2018-12-24T20:08:21.082Z,2.00
2018-12-24T20:10:50.425Z,1.90
2018-12-24T20:13:19.583Z,1.90
2018-12-24T20:15:48.813Z,1.90
2018-12-24T20:18:17.981Z,1.90
2018-12-24T20:20:47.253Z,1.80
2018-12-24T20:23:16.483Z,1.80
2018-12-24T20:25:45.760Z,1.80
2018-12-24T20:28:15.111Z,1.80
2018-12-24T20:30:44.270Z,1.70
2018-12-24T20:33:13.443Z,1.70
2018-12-24T20:35:42.589Z,1.70
2018-12-24T20:38:11.785Z,1.70
2018-12-24T20:40:40.925Z,1.70
2018-12-24T20:43:10.098Z,1.70
2018-12-24T20:45:39.236Z,1.60
2018-12-24T20:48:08.403Z,1.60
2018-12-24T20:50:37.584Z,1.60
2018-12-24T20:53:06.813Z,1.50
2018-12-24T20:55:36.027Z,1.50
2018-12-24T20:58:05.286Z,1.50
2018-12-24T21:00:34.454Z,1.50
2018-12-24T21:03:03.619Z,1.40
2018-12-24T21:05:32.875Z,1.30
2018-12-24T21:08:02.055Z,1.30
2018-12-24T21:10:31.212Z,1.30
2018-12-24T21:13:00.359Z,1.20
2018-12-24T21:15:29.523Z,1.20
2018-12-24T21:17:58.683Z,1.20
2018-12-24T21:20:27.884Z,1.20
2018-12-24T21:22:57.113Z,1.10
2018-12-24T21:25:26.269Z,1.10
2018-12-24T21:27:55.471Z,1.10
2018-12-24T21:30:24.634Z,1.10
2018-12-24T21:32:53.802Z,1.10
2018-12-24T21:35:23.078Z,1.00
2018-12-24T21:37:52.227Z,1.00
2018-12-24T21:40:21.408Z,1.00
2018-12-24T21:42:54.561Z,0.90
2018-12-24T21:45:21.514Z,0.90
2018-12-24T21:47:50.704Z,0.90
2018-12-24T21:50:19.870Z,0.90
2018-12-24T21:52:49.114Z,0.90
2018-12-24T21:55:18.258Z,0.90
2018-12-24T21:57:47.489Z,0.80
2018-12-24T22:00:16.662Z,0.90
2018-12-24T22:02:46.494Z,0.80
2018-12-24T22:05:15.798Z,0.80
2018-12-24T22:07:45.071Z,0.80
2018-12-24T22:10:14.281Z,0.80
2018-12-24T22:12:43.484Z,0.80
2018-12-24T22:15:12.652Z,0.70
2018-12-24T22:17:41.813Z,0.70
2018-12-24T22:20:11.053Z,0.70
2018-12-24T22:22:40.470Z,0.70
2018-12-24T22:25:09.637Z,0.60
2018-12-24T22:27:38.874Z,0.60
2018-12-24T22:30:08.050Z,0.50
2018-12-24T22:32:37.287Z,0.50
2018-12-24T22:35:06.466Z,0.50
2018-12-24T22:37:35.627Z,0.50
2018-12-24T22:40:04.869Z,0.40
2018-12-24T22:42:34.030Z,0.40
2018-12-24T22:45:03.270Z,0.40
2018-12-24T22:47:32.449Z,0.40
2018-12-24T22:50:01.629Z,0.30
2018-12-24T22:52:30.796Z,0.30
2018-12-24T22:55:00.025Z,0.30
2018-12-24T22:57:29.189Z,0.30
2018-12-24T22:59:58.348Z,0.30
2018-12-24T23:02:27.595Z,0.30
2018-12-24T23:04:56.761Z,0.40
2018-12-24T23:07:25.927Z,0.40
2018-12-24T23:09:55.049Z,0.40
2018-12-24T23:12:24.215Z,0.40
2018-12-24T23:14:53.359Z,0.40
2018-12-24T23:17:22.509Z,0.40
2018-12-24T23:19:51.663Z,0.40
2018-12-24T23:22:20.971Z,0.40
2018-12-24T23:24:50.277Z,0.30
2018-12-24T23:27:19.465Z,0.30
2018-12-24T23:29:48.769Z,0.30
2018-12-24T23:32:17.878Z,0.30
2018-12-24T23:34:47.351Z,0.30
2018-12-24T23:37:16.477Z,0.20
2018-12-24T23:39:45.937Z,0.20
2018-12-24T23:42:15.219Z,0.20
2018-12-24T23:44:44.471Z,0.10
2018-12-24T23:47:13.588Z,0.10
2018-12-24T23:49:42.725Z,0.10
2018-12-24T23:52:11.965Z,0.00
2018-12-24T23:54:41.084Z,0.00
2018-12-24T23:57:10.308Z,0.00
2018-12-24T23:59:39.501Z,0.00
